ESTT weather

Vellinge Airfield
Vellinge, Skåne län, Sweden

Public forecast

Using degrees Celsius for public forecast. Weather courtesy of forecast.io.

METAR (pilot weather report)

Closest report is Malmö Sturup Airport, 14.9 nm (27.5 km) NE. Retrieved 2019/07/24 01:20 UTC (21 minutes ago):

ESMS 240120Z 00000KT 0400 R17/P1500N R35/P1500N BCFG NSC 13/13 Q1019

TAF (pilot weather forecast)

Forecast is more than 12 hours old.

Closest forecast is Malmö Sturup Airport, 14.9 nm (27.5 km) NE. Retrieved 2019/07/23 00:36 UTC (1 day ago):

TAF ESMS 232307Z 2400/2424 VRB03KT 9999 SCT020 TEMPO 2400/2406 0800 BCFG FG BKN002